Time;durP1;ratioP1;P1;durP2;ratioP2;P2;SDS_P1;SDS_P2;PMS_P1;PMS_P2;Temp;Humidity;BMP_temperature;BMP_pressure;BME280_temperature;BME280_humidity;BME280_pressure;Samples;Min_cycle;Max_cycle;Signal;HPM_P1;HPM_P2
2023/11/09 00:01:45;;;;;;;12.80;9.32;;;;;;;;;;4990875;28;20034;-80
2023/11/09 00:04:11;;;;;;;11.18;9.93;;;;;;;;;;4991806;28;20452;-79
2023/11/09 00:06:37;;;;;;;8.93;8.05;;;;;;;;;;4993925;28;20045;-78
2023/11/09 00:09:06;;;;;;;12.73;8.40;;;;;;;;;;5002527;28;20046;-78
2023/11/09 00:11:34;;;;;;;9.27;7.88;;;;;;;;;;5001213;28;20038;-77
2023/11/09 00:14:04;;;;;;;12.77;8.60;;;;;;;;;;4991979;28;20039;-78
2023/11/09 00:16:30;;;;;;;9.73;8.55;;;;;;;;;;4990836;28;20034;-78
2023/11/09 00:18:57;;;;;;;11.40;9.23;;;;;;;;;;4990980;28;20031;-78
2023/11/09 00:21:23;;;;;;;12.80;9.90;;;;;;;;;;4993147;28;20034;-79
2023/11/09 00:23:49;;;;;;;19.92;9.82;;;;;;;;;;4994526;28;20041;-79
2023/11/09 00:26:15;;;;;;;11.20;10.05;;;;;;;;;;4993628;28;20038;-78
2023/11/09 00:28:50;;;;;;;15.73;10.43;;;;;;;;;;4994526;28;20038;-77
2023/11/09 00:31:17;;;;;;;10.35;9.18;;;;;;;;;;4977325;28;20057;-79
2023/11/09 00:33:43;;;;;;;18.48;11.57;;;;;;;;;;4994670;28;20068;-78
2023/11/09 00:36:09;;;;;;;19.55;11.52;;;;;;;;;;4977183;28;20035;-79
2023/11/09 00:38:37;;;;;;;18.48;14.48;;;;;;;;;;4976738;28;20042;-79
2023/11/09 00:41:03;;;;;;;17.52;10.70;;;;;;;;;;4977713;28;20065;-80
2023/11/09 00:43:29;;;;;;;11.77;9.82;;;;;;;;;;4997200;28;20038;-80
2023/11/09 00:45:55;;;;;;;13.95;9.80;;;;;;;;;;4996340;28;20137;-81
2023/11/09 00:48:21;;;;;;;13.88;9.43;;;;;;;;;;4995761;28;20060;-81
2023/11/09 00:50:47;;;;;;;15.55;8.93;;;;;;;;;;4996741;28;20658;-78
2023/11/09 00:53:14;;;;;;;14.82;9.88;;;;;;;;;;4996593;28;20057;-80
2023/11/09 00:55:40;;;;;;;16.17;10.68;;;;;;;;;;4996248;28;20529;-80
2023/11/09 00:58:06;;;;;;;12.35;9.73;;;;;;;;;;4997240;28;20109;-80
2023/11/09 01:00:32;;;;;;;18.52;9.88;;;;;;;;;;4994896;28;20026;-80
2023/11/09 01:02:59;;;;;;;11.10;8.82;;;;;;;;;;4996173;28;20058;-80
2023/11/09 01:05:25;;;;;;;15.23;10.18;;;;;;;;;;4998374;28;20044;-81
2023/11/09 01:07:51;;;;;;;14.77;11.13;;;;;;;;;;5000705;28;20117;-79
2023/11/09 01:10:17;;;;;;;13.38;10.93;;;;;;;;;;4984522;28;20058;-81
2023/11/09 01:12:44;;;;;;;11.95;9.75;;;;;;;;;;5000472;28;20525;-81
2023/11/09 01:15:10;;;;;;;15.73;10.75;;;;;;;;;;4999677;28;20058;-82
2023/11/09 01:17:37;;;;;;;14.68;10.27;;;;;;;;;;4999052;28;20036;-80
2023/11/09 01:20:05;;;;;;;22.13;11.40;;;;;;;;;;5001124;28;20648;-82
2023/11/09 01:22:31;;;;;;;22.10;10.88;;;;;;;;;;5004286;28;20026;-81
2023/11/09 01:24:57;;;;;;;16.25;10.20;;;;;;;;;;5006421;28;20042;-80
2023/11/09 01:27:23;;;;;;;13.23;10.68;;;;;;;;;;4991420;28;20030;-82
2023/11/09 01:29:49;;;;;;;16.90;12.10;;;;;;;;;;5007527;28;20054;-81
2023/11/09 01:32:15;;;;;;;15.77;11.70;;;;;;;;;;5005173;28;20031;-83
2023/11/09 01:34:42;;;;;;;13.32;11.05;;;;;;;;;;5002727;28;20125;-82
2023/11/09 01:37:10;;;;;;;17.58;11.90;;;;;;;;;;5006302;28;20408;-82
2023/11/09 01:39:40;;;;;;;13.80;11.30;;;;;;;;;;4994492;28;20414;-83
2023/11/09 01:42:06;;;;;;;19.77;11.48;;;;;;;;;;4995318;28;20500;-82
2023/11/09 01:44:33;;;;;;;14.90;11.45;;;;;;;;;;4990971;28;20524;-82
2023/11/09 01:46:59;;;;;;;19.80;12.18;;;;;;;;;;5003324;28;20064;-81
2023/11/09 01:49:25;;;;;;;14.38;11.90;;;;;;;;;;4986025;28;20105;-81
2023/11/09 01:51:54;;;;;;;19.13;11.88;;;;;;;;;;4984067;28;20116;-81
2023/11/09 01:54:20;;;;;;;14.70;11.98;;;;;;;;;;4981195;28;20045;-80
2023/11/09 01:56:46;;;;;;;18.83;12.48;;;;;;;;;;4981873;28;20038;-81
2023/11/09 01:59:12;;;;;;;12.50;11.18;;;;;;;;;;4983462;28;20045;-82
2023/11/09 02:01:38;;;;;;;14.07;11.57;;;;;;;;;;4984429;28;20034;-79
2023/11/09 02:04:04;;;;;;;12.77;10.68;;;;;;;;;;4986739;28;20034;-80
2023/11/09 02:06:30;;;;;;;14.18;10.98;;;;;;;;;;4991007;28;20065;-81
2023/11/09 02:08:57;;;;;;;13.45;10.50;;;;;;;;;;5018768;28;20418;-81
2023/11/09 02:11:24;;;;;;;14.05;11.63;;;;;;;;;;4993442;28;20136;-81
2023/11/09 02:13:50;;;;;;;18.60;12.73;;;;;;;;;;5009281;28;20030;-81
2023/11/09 02:16:16;;;;;;;14.02;12.60;;;;;;;;;;5003237;28;20034;-82
2023/11/09 02:18:42;;;;;;;16.73;12.23;;;;;;;;;;4999605;28;20045;-81
2023/11/09 02:21:11;;;;;;;20.27;12.63;;;;;;;;;;4983832;28;20049;-80
2023/11/09 02:23:37;;;;;;;18.70;12.85;;;;;;;;;;4999857;28;20066;-79
2023/11/09 02:26:03;;;;;;;18.40;12.77;;;;;;;;;;4998352;28;20042;-81
2023/11/09 02:28:31;;;;;;;12.88;11.30;;;;;;;;;;4995773;28;20093;-81
2023/11/09 02:30:56;;;;;;;15.90;12.10;;;;;;;;;;4997012;28;20042;-81
2023/11/09 02:33:23;;;;;;;19.20;12.65;;;;;;;;;;4999616;28;20034;-81
2023/11/09 02:35:49;;;;;;;20.00;12.63;;;;;;;;;;4998108;28;20048;-80
2023/11/09 02:38:15;;;;;;;14.85;10.90;;;;;;;;;;4993338;28;20077;-80
2023/11/09 02:40:41;;;;;;;15.20;13.70;;;;;;;;;;4995086;28;20052;-80
2023/11/09 02:43:07;;;;;;;14.75;11.80;;;;;;;;;;4994566;28;20036;-80
2023/11/09 02:45:34;;;;;;;13.18;11.75;;;;;;;;;;4994375;28;20058;-80
2023/11/09 02:48:00;;;;;;;20.88;11.80;;;;;;;;;;4995904;28;20034;-79
2023/11/09 02:50:26;;;;;;;16.50;11.85;;;;;;;;;;4999132;28;20050;-81
2023/11/09 02:52:52;;;;;;;22.77;13.68;;;;;;;;;;4999034;28;20038;-80
2023/11/09 02:55:19;;;;;;;15.45;11.32;;;;;;;;;;4997753;28;20038;-80
2023/11/09 02:57:45;;;;;;;12.23;10.27;;;;;;;;;;4998911;28;20054;-80
2023/11/09 03:00:11;;;;;;;26.20;11.90;;;;;;;;;;4995887;28;20040;-80
2023/11/09 03:02:39;;;;;;;11.90;10.40;;;;;;;;;;4994735;28;20043;-79
2023/11/09 03:05:05;;;;;;;13.13;10.82;;;;;;;;;;4964451;28;20034;-81
2023/11/09 03:07:31;;;;;;;20.88;11.43;;;;;;;;;;4996788;28;20067;-80
2023/11/09 03:09:59;;;;;;;16.98;12.93;;;;;;;;;;4995090;28;20092;-79
2023/11/09 03:12:26;;;;;;;18.67;12.02;;;;;;;;;;4992367;28;20636;-79
2023/11/09 03:14:52;;;;;;;23.90;12.85;;;;;;;;;;4974320;28;20111;-79
2023/11/09 03:17:20;;;;;;;20.95;14.50;;;;;;;;;;4990849;28;20056;-81
2023/11/09 03:19:46;;;;;;;18.15;15.48;;;;;;;;;;4991423;28;20038;-80
2023/11/09 03:22:12;;;;;;;26.88;17.15;;;;;;;;;;4991312;28;20030;-80
2023/11/09 03:24:41;;;;;;;20.45;16.17;;;;;;;;;;4991104;28;20046;-79
2023/11/09 03:27:09;;;;;;;25.83;15.35;;;;;;;;;;4992852;28;20078;-81
2023/11/09 03:29:36;;;;;;;30.55;18.08;;;;;;;;;;4990985;28;20085;-80
2023/11/09 03:32:03;;;;;;;21.98;17.48;;;;;;;;;;4991897;28;20132;-80
2023/11/09 03:34:28;;;;;;;35.50;19.23;;;;;;;;;;4992241;28;20043;-80
2023/11/09 03:36:55;;;;;;;21.25;15.10;;;;;;;;;;4992033;28;20045;-80
2023/11/09 03:39:21;;;;;;;30.60;20.85;;;;;;;;;;4992605;28;20042;-79
2023/11/09 03:41:49;;;;;;;39.10;18.70;;;;;;;;;;4974584;28;20508;-79
2023/11/09 03:44:15;;;;;;;30.77;18.63;;;;;;;;;;4976009;28;20394;-81
2023/11/09 03:46:41;;;;;;;28.73;15.82;;;;;;;;;;4992169;28;20060;-80
2023/11/09 03:49:07;;;;;;;23.60;14.70;;;;;;;;;;4992011;28;20038;-82
2023/11/09 03:51:34;;;;;;;37.08;14.15;;;;;;;;;;4976185;28;20156;-80
2023/11/09 03:54:03;;;;;;;24.00;13.50;;;;;;;;;;4994351;28;20089;-80
2023/11/09 03:56:29;;;;;;;22.77;12.68;;;;;;;;;;4992365;28;20034;-80
2023/11/09 03:58:55;;;;;;;27.98;12.52;;;;;;;;;;4992143;28;20092;-81
2023/11/09 04:01:21;;;;;;;20.80;13.07;;;;;;;;;;4991415;28;20045;-79
2023/11/09 04:03:46;;;;;;;20.42;13.45;;;;;;;;;;4971800;28;20026;-81
2023/11/09 04:06:16;;;;;;;16.05;12.65;;;;;;;;;;4992807;28;20512;-80
2023/11/09 04:08:42;;;;;;;17.63;12.85;;;;;;;;;;4998083;28;20496;-79
2023/11/09 04:11:08;;;;;;;16.73;13.35;;;;;;;;;;5002610;28;20030;-79
2023/11/09 04:13:34;;;;;;;18.65;13.35;;;;;;;;;;5003942;28;20034;-80
2023/11/09 04:16:02;;;;;;;16.73;12.32;;;;;;;;;;5002243;28;20125;-78
2023/11/09 04:18:28;;;;;;;20.27;14.75;;;;;;;;;;4993910;28;20035;-80
2023/11/09 04:20:54;;;;;;;19.10;13.73;;;;;;;;;;4975056;28;20125;-79
2023/11/09 04:23:21;;;;;;;18.00;13.57;;;;;;;;;;4991651;28;20504;-79
2023/11/09 04:25:47;;;;;;;17.48;13.20;;;;;;;;;;4974191;28;20042;-80
2023/11/09 04:28:13;;;;;;;25.67;13.45;;;;;;;;;;4978378;28;20049;-82
2023/11/09 04:30:40;;;;;;;21.92;15.43;;;;;;;;;;4995965;28;20092;-82
2023/11/09 04:33:09;;;;;;;30.88;15.27;;;;;;;;;;4964300;28;20038;-82
2023/11/09 04:35:35;;;;;;;26.75;14.85;;;;;;;;;;4996755;28;20038;-81
2023/11/09 04:38:02;;;;;;;18.38;13.80;;;;;;;;;;4980652;28;20045;-81
2023/11/09 04:40:28;;;;;;;29.70;13.48;;;;;;;;;;4980369;28;20037;-80
2023/11/09 04:42:56;;;;;;;21.80;12.77;;;;;;;;;;4979212;28;20094;-80
2023/11/09 04:45:23;;;;;;;26.27;14.75;;;;;;;;;;4993481;28;20655;-80
2023/11/09 04:47:55;;;;;;;26.48;15.15;;;;;;;;;;4991514;28;20049;-79
2023/11/09 04:50:28;;;;;;;17.95;13.30;;;;;;;;;;4995593;28;20050;-81
2023/11/09 04:53:03;;;;;;;29.83;16.23;;;;;;;;;;4993455;28;20039;-82
2023/11/09 04:55:42;;;;;;;22.42;14.77;;;;;;;;;;4999677;28;20108;-79
2023/11/09 05:09:12;;;;;;;35.55;15.43;;;;;;;;;;5003112;28;20049;-81
2023/11/09 05:11:38;;;;;;;30.88;15.90;;;;;;;;;;5004399;28;20038;-79
2023/11/09 05:14:05;;;;;;;21.65;15.55;;;;;;;;;;4986242;28;20045;-81
2023/11/09 05:16:31;;;;;;;25.15;15.88;;;;;;;;;;5005213;28;20030;-82
2023/11/09 05:18:57;;;;;;;25.73;15.98;;;;;;;;;;4990274;28;20038;-81
2023/11/09 05:21:23;;;;;;;21.05;14.25;;;;;;;;;;5001152;28;20034;-80
2023/11/09 05:23:49;;;;;;;22.70;14.48;;;;;;;;;;4996458;28;20057;-82
2023/11/09 10:50:58;;;;;;;32.05;14.55;;;;;;;;;;4833183;23;20060;-79
2023/11/09 10:53:43;;;;;;;20.55;13.55;;;;;;;;;;4945965;29;20062;-83
2023/11/09 10:56:13;;;;;;;27.17;15.52;;;;;;;;;;4964182;29;20063;-81
2023/11/09 10:58:44;;;;;;;23.30;13.73;;;;;;;;;;4964048;29;20032;-81
2023/11/09 11:01:11;;;;;;;19.10;13.95;;;;;;;;;;4937098;29;20275;-81
2023/11/09 11:03:44;;;;;;;16.92;12.57;;;;;;;;;;4963834;29;20103;-83
2023/11/09 11:06:11;;;;;;;15.43;13.68;;;;;;;;;;4945157;29;20028;-81
2023/11/09 11:08:40;;;;;;;14.48;10.63;;;;;;;;;;4948644;29;20157;-82
2023/11/09 11:11:09;;;;;;;16.83;10.40;;;;;;;;;;4950029;29;20534;-79
2023/11/09 11:13:35;;;;;;;11.90;10.45;;;;;;;;;;4937347;29;20135;-79
2023/11/09 11:16:14;;;;;;;16.77;10.48;;;;;;;;;;4940150;29;20059;-81
2023/11/09 11:18:42;;;;;;;17.77;11.52;;;;;;;;;;4933768;29;20043;-81
2023/11/09 11:21:45;;;;;;;20.08;11.25;;;;;;;;;;4942994;29;20031;-81
2023/11/09 11:24:12;;;;;;;16.42;10.73;;;;;;;;;;4877553;29;20032;-79
2023/11/09 11:26:44;;;;;;;13.90;9.65;;;;;;;;;;4918232;29;20569;-80
2023/11/09 11:29:10;;;;;;;11.05;9.10;;;;;;;;;;4932944;29;20506;-79
2023/11/09 11:31:40;;;;;;;13.18;7.88;;;;;;;;;;4934511;29;20051;-80
2023/11/09 11:34:07;;;;;;;13.93;7.80;;;;;;;;;;4913589;29;20060;-79
2023/11/09 11:36:33;;;;;;;7.90;7.15;;;;;;;;;;4925490;29;20506;-78
2023/11/09 11:39:12;;;;;;;12.43;8.05;;;;;;;;;;4933754;29;20038;-77
2023/11/09 11:41:39;;;;;;;11.95;8.07;;;;;;;;;;4933153;29;20047;-79
2023/11/09 11:44:05;;;;;;;18.50;11.18;;;;;;;;;;4931814;29;20035;-80
2023/11/09 11:46:32;;;;;;;14.23;8.00;;;;;;;;;;4947449;28;20478;-79
2023/11/09 11:48:58;;;;;;;12.00;8.82;;;;;;;;;;4947307;28;20040;-78
2023/11/09 11:51:26;;;;;;;12.18;8.18;;;;;;;;;;4931340;29;20043;-78
2023/11/09 11:54:00;;;;;;;15.43;12.63;;;;;;;;;;4940523;29;20041;-80
2023/11/09 11:56:33;;;;;;;18.45;16.35;;;;;;;;;;4939012;29;20046;-82
2023/11/09 11:59:00;;;;;;;10.55;8.80;;;;;;;;;;4950085;29;20118;-81
2023/11/09 12:01:33;;;;;;;48.08;29.65;;;;;;;;;;4945711;29;20044;-81
2023/11/09 12:03:59;;;;;;;15.55;10.15;;;;;;;;;;4955138;29;20174;-81
2023/11/09 12:06:26;;;;;;;12.80;10.45;;;;;;;;;;4967113;28;20040;-82
2023/11/09 12:08:55;;;;;;;23.98;16.05;;;;;;;;;;4958624;29;20524;-81
2023/11/09 12:11:25;;;;;;;10.35;9.48;;;;;;;;;;4952297;29;20072;-80
2023/11/09 12:13:58;;;;;;;23.48;19.00;;;;;;;;;;4952752;28;20495;-81
2023/11/09 12:16:28;;;;;;;7.75;7.00;;;;;;;;;;4948628;28;20455;-79
2023/11/09 12:32:54;;;;;;;7.07;6.22;;;;;;;;;;4937357;29;20051;-80
2023/11/09 12:35:20;;;;;;;7.45;6.50;;;;;;;;;;4941731;29;20091;-78
2023/11/09 12:37:57;;;;;;;7.22;5.70;;;;;;;;;;4947860;29;20040;-79
2023/11/09 12:40:26;;;;;;;12.32;6.75;;;;;;;;;;4939541;29;20039;-79
2023/11/09 12:42:54;;;;;;;7.10;6.38;;;;;;;;;;4945531;29;20629;-80
2023/11/09 12:45:20;;;;;;;6.70;6.00;;;;;;;;;;4936747;29;20109;-78
2023/11/09 12:47:47;;;;;;;15.25;7.45;;;;;;;;;;4935971;29;20051;-79
2023/11/09 12:50:19;;;;;;;11.23;6.32;;;;;;;;;;4936401;29;20043;-79
2023/11/09 12:52:46;;;;;;;12.00;6.70;;;;;;;;;;4928727;29;20055;-80
2023/11/09 12:55:14;;;;;;;9.75;6.28;;;;;;;;;;4918553;29;20032;-80
2023/11/09 12:57:40;;;;;;;13.43;7.13;;;;;;;;;;4916578;29;20040;-80
2023/11/09 13:00:19;;;;;;;9.38;6.65;;;;;;;;;;4946018;29;20047;-81
2023/11/09 13:02:47;;;;;;;9.80;6.95;;;;;;;;;;4919898;29;20027;-80
2023/11/09 13:05:17;;;;;;;6.38;5.78;;;;;;;;;;4935140;29;20040;-80
2023/11/09 13:07:46;;;;;;;7.35;6.22;;;;;;;;;;4936547;29;20038;-80
2023/11/09 13:10:19;;;;;;;12.10;6.18;;;;;;;;;;4932609;29;20050;-80
2023/11/09 13:12:47;;;;;;;5.10;4.40;;;;;;;;;;4938399;29;20059;-80
2023/11/09 13:15:30;;;;;;;8.60;6.22;;;;;;;;;;4934112;29;20448;-79
2023/11/09 13:17:56;;;;;;;14.32;7.68;;;;;;;;;;4935933;29;20039;-77
2023/11/09 13:20:38;;;;;;;9.93;7.05;;;;;;;;;;4934553;29;20142;-79
2023/11/09 13:23:05;;;;;;;7.10;6.20;;;;;;;;;;4949688;28;20035;-78
2023/11/09 13:25:35;;;;;;;6.30;5.65;;;;;;;;;;4926998;29;20070;-79
2023/11/09 13:28:02;;;;;;;12.43;6.15;;;;;;;;;;4925853;29;20043;-79
2023/11/09 13:30:28;;;;;;;10.93;6.40;;;;;;;;;;4918573;29;20040;-81
2023/11/09 13:33:00;;;;;;;14.77;6.47;;;;;;;;;;4936365;29;20023;-81
2023/11/09 13:35:32;;;;;;;8.52;6.72;;;;;;;;;;4945636;29;20031;-81
2023/11/09 13:38:00;;;;;;;14.38;7.72;;;;;;;;;;4944960;29;20028;-81
2023/11/09 13:43:08;;;;;;;13.82;7.43;;;;;;;;;;4954895;29;20024;-82
2023/11/09 13:45:35;;;;;;;10.05;8.05;;;;;;;;;;4956295;29;20078;-82
2023/11/09 13:48:12;;;;;;;9.63;6.53;;;;;;;;;;4941756;29;20095;-80
2023/11/09 13:50:45;;;;;;;9.68;7.30;;;;;;;;;;4939696;29;20056;-80
2023/11/09 13:53:24;;;;;;;7.78;6.30;;;;;;;;;;4929839;29;20024;-80
2023/11/09 13:57:05;;;;;;;11.93;6.93;;;;;;;;;;4947913;29;20044;-81
2023/11/09 13:58:47;;;;;;;5.68;4.97;;;;;;;;;;4927251;29;20036;-78
2023/11/09 14:01:24;;;;;;;11.52;5.80;;;;;;;;;;4930013;29;20123;-78
2023/11/09 14:03:50;;;;;;;10.13;6.05;;;;;;;;;;4928007;29;20035;-79
2023/11/09 14:06:20;;;;;;;9.73;6.65;;;;;;;;;;4935276;29;20043;-78
2023/11/09 14:08:46;;;;;;;12.65;6.25;;;;;;;;;;4925503;29;20032;-78
2023/11/09 14:11:12;;;;;;;6.20;5.22;;;;;;;;;;4927048;29;20048;-79
2023/11/09 14:13:46;;;;;;;10.88;5.68;;;;;;;;;;4929323;29;20031;-78
2023/11/09 14:16:23;;;;;;;8.57;6.18;;;;;;;;;;4927029;29;20042;-77
2023/11/09 14:19:20;;;;;;;8.98;6.15;;;;;;;;;;4931851;29;20406;-78
2023/11/09 14:21:46;;;;;;;7.55;5.55;;;;;;;;;;4931760;29;20039;-79
2023/11/09 14:24:13;;;;;;;14.55;7.20;;;;;;;;;;4929196;29;20074;-78
2023/11/09 14:26:39;;;;;;;6.43;5.20;;;;;;;;;;4916675;29;20043;-79
2023/11/09 14:29:09;;;;;;;9.68;5.60;;;;;;;;;;4932398;29;20582;-79
2023/11/09 14:31:39;;;;;;;9.07;5.60;;;;;;;;;;4929295;29;20063;-78
2023/11/09 14:34:13;;;;;;;14.35;6.70;;;;;;;;;;4922959;29;20044;-79
2023/11/09 14:36:48;;;;;;;11.65;6.43;;;;;;;;;;4931740;29;20498;-79
2023/11/09 14:39:32;;;;;;;22.52;6.53;;;;;;;;;;4929977;29;20115;-79
2023/11/09 14:41:59;;;;;;;18.58;7.90;;;;;;;;;;4931271;29;20043;-78
2023/11/09 14:44:25;;;;;;;7.18;6.40;;;;;;;;;;4932388;29;20098;-78
2023/11/09 14:46:54;;;;;;;15.57;6.70;;;;;;;;;;4930979;29;20516;-79
2023/11/09 14:49:20;;;;;;;9.75;5.72;;;;;;;;;;4932906;29;20047;-78
2023/11/09 14:51:47;;;;;;;8.30;5.82;;;;;;;;;;4931543;29;20072;-77
2023/11/09 14:54:14;;;;;;;10.38;5.93;;;;;;;;;;4933213;29;20165;-78
2023/11/09 14:56:41;;;;;;;12.45;6.40;;;;;;;;;;4933219;29;20078;-78
2023/11/09 14:59:11;;;;;;;6.80;6.13;;;;;;;;;;4933747;29;20027;-78
2023/11/09 15:01:37;;;;;;;8.38;6.00;;;;;;;;;;4929727;29;20035;-77
2023/11/09 15:04:04;;;;;;;10.95;5.85;;;;;;;;;;4933552;29;20027;-77
2023/11/09 15:06:31;;;;;;;12.27;6.50;;;;;;;;;;4932577;29;20450;-76
2023/11/09 15:09:17;;;;;;;6.75;5.20;;;;;;;;;;4931499;28;20176;-76
2023/11/09 15:11:43;;;;;;;6.57;4.82;;;;;;;;;;4930719;29;20515;-78
2023/11/09 15:14:09;;;;;;;5.85;5.15;;;;;;;;;;4903084;29;20028;-77
2023/11/09 15:16:39;;;;;;;6.40;4.82;;;;;;;;;;4925425;29;20027;-77
2023/11/09 15:19:07;;;;;;;4.13;3.83;;;;;;;;;;4894848;29;20095;-76
2023/11/09 15:21:34;;;;;;;5.15;4.65;;;;;;;;;;4931452;29;20071;-77
2023/11/09 15:24:03;;;;;;;4.68;4.10;;;;;;;;;;4933037;29;20035;-78
2023/11/09 15:26:33;;;;;;;4.85;4.15;;;;;;;;;;4931675;29;20039;-79
2023/11/09 15:28:59;;;;;;;5.70;4.28;;;;;;;;;;4930037;29;20055;-79
2023/11/09 15:31:25;;;;;;;4.93;4.47;;;;;;;;;;4929404;29;20577;-78
2023/11/09 15:33:53;;;;;;;9.70;4.32;;;;;;;;;;4932391;29;20119;-78
2023/11/09 15:36:19;;;;;;;4.68;4.28;;;;;;;;;;4929413;29;20032;-79
2023/11/09 15:38:46;;;;;;;6.60;3.90;;;;;;;;;;4924545;29;20028;-79
2023/11/09 15:41:12;;;;;;;5.38;4.55;;;;;;;;;;4923971;29;20561;-76
2023/11/09 15:43:39;;;;;;;5.32;3.92;;;;;;;;;;4922799;29;20036;-75
2023/11/09 15:46:06;;;;;;;6.82;4.20;;;;;;;;;;4925285;29;20040;-76
2023/11/09 15:48:32;;;;;;;4.38;3.65;;;;;;;;;;4926508;29;20507;-75
2023/11/09 15:50:58;;;;;;;6.40;3.53;;;;;;;;;;4924931;29;20050;-75
2023/11/09 15:53:25;;;;;;;10.15;3.88;;;;;;;;;;4924954;29;20050;-75
2023/11/09 15:55:52;;;;;;;8.85;4.75;;;;;;;;;;4922657;29;20060;-75
2023/11/09 15:58:18;;;;;;;4.68;4.22;;;;;;;;;;4926760;29;20118;-75
2023/11/09 16:00:46;;;;;;;5.72;4.80;;;;;;;;;;4941842;28;20039;-75
2023/11/09 16:03:12;;;;;;;6.38;4.80;;;;;;;;;;4927680;29;20028;-75
2023/11/09 16:05:38;;;;;;;9.05;4.80;;;;;;;;;;4933268;29;20046;-76
2023/11/09 16:08:07;;;;;;;10.82;4.70;;;;;;;;;;4912151;29;20461;-76
2023/11/09 16:10:36;;;;;;;8.45;5.22;;;;;;;;;;4932198;29;20074;-75
2023/11/09 16:13:02;;;;;;;5.35;4.70;;;;;;;;;;4932472;29;20071;-74
2023/11/09 16:15:29;;;;;;;7.97;5.22;;;;;;;;;;4931138;29;20070;-75
2023/11/09 16:17:55;;;;;;;7.63;4.82;;;;;;;;;;4932150;29;20036;-75
2023/11/09 16:20:29;;;;;;;5.72;4.78;;;;;;;;;;4931497;29;20410;-75
2023/11/09 16:22:56;;;;;;;5.03;4.55;;;;;;;;;;4930526;29;20032;-75
2023/11/09 16:25:22;;;;;;;5.68;4.13;;;;;;;;;;4932813;29;20070;-75
2023/11/09 16:27:53;;;;;;;9.55;3.42;;;;;;;;;;4942166;29;20565;-75
2023/11/09 16:30:22;;;;;;;4.68;4.35;;;;;;;;;;4943859;29;20044;-74
2023/11/09 16:32:49;;;;;;;6.47;3.97;;;;;;;;;;4951890;29;20056;-75
2023/11/09 16:35:17;;;;;;;5.13;3.78;;;;;;;;;;4942406;29;20040;-76
2023/11/09 16:37:44;;;;;;;5.00;3.75;;;;;;;;;;4940595;29;20032;-75
2023/11/09 16:40:11;;;;;;;9.13;4.85;;;;;;;;;;4941741;29;20036;-75
2023/11/09 16:42:37;;;;;;;4.97;4.57;;;;;;;;;;4931011;29;20383;-76
2023/11/09 16:45:06;;;;;;;5.20;4.70;;;;;;;;;;4911963;29;20081;-76
2023/11/09 16:47:32;;;;;;;7.10;4.75;;;;;;;;;;4946260;28;20071;-76
2023/11/09 16:49:58;;;;;;;6.68;5.57;;;;;;;;;;4931053;29;20051;-76
2023/11/09 16:52:25;;;;;;;5.35;4.85;;;;;;;;;;4947233;28;20036;-75
2023/11/09 16:54:51;;;;;;;6.45;4.82;;;;;;;;;;4913759;29;20055;-75
2023/11/09 16:57:17;;;;;;;6.25;4.50;;;;;;;;;;4924232;29;20415;-76
2023/11/09 16:59:45;;;;;;;9.48;5.00;;;;;;;;;;4929146;29;20059;-77
2023/11/09 17:02:12;;;;;;;5.00;4.20;;;;;;;;;;4921800;29;20036;-76
2023/11/09 17:04:38;;;;;;;7.65;4.82;;;;;;;;;;4933770;29;20040;-76
2023/11/09 17:07:04;;;;;;;5.88;5.47;;;;;;;;;;4935918;29;20040;-77
2023/11/09 17:09:30;;;;;;;5.18;4.72;;;;;;;;;;4939983;29;20112;-76
2023/11/09 17:11:56;;;;;;;7.80;4.70;;;;;;;;;;4922234;29;20071;-75
2023/11/09 17:14:22;;;;;;;21.40;5.28;;;;;;;;;;4948735;29;20035;-74
2023/11/09 17:16:48;;;;;;;5.57;5.05;;;;;;;;;;4941612;29;20091;-75
2023/11/09 17:19:14;;;;;;;4.80;4.25;;;;;;;;;;4935557;29;20034;-76
2023/11/09 17:21:40;;;;;;;5.60;5.10;;;;;;;;;;4923014;29;20118;-77
2023/11/09 17:24:08;;;;;;;6.18;5.07;;;;;;;;;;4933464;28;20032;-76
2023/11/09 17:26:34;;;;;;;10.75;5.18;;;;;;;;;;4927744;29;20036;-75
2023/11/09 17:29:01;;;;;;;7.38;6.65;;;;;;;;;;4944822;29;20738;-75
2023/11/09 17:31:27;;;;;;;6.55;5.75;;;;;;;;;;4933754;29;20051;-76
2023/11/09 17:33:55;;;;;;;6.75;5.82;;;;;;;;;;4929021;29;20043;-77
2023/11/09 17:36:21;;;;;;;7.20;5.15;;;;;;;;;;4912262;29;20519;-76
2023/11/09 17:38:47;;;;;;;11.32;5.30;;;;;;;;;;4925038;29;20086;-78
2023/11/09 17:41:14;;;;;;;5.70;5.05;;;;;;;;;;4927162;29;20483;-74
2023/11/09 17:43:40;;;;;;;6.53;5.97;;;;;;;;;;4929200;29;20158;-76
2023/11/09 17:46:06;;;;;;;7.30;6.68;;;;;;;;;;4934356;29;20042;-77
2023/11/09 17:48:32;;;;;;;6.35;5.80;;;;;;;;;;4934360;29;20036;-77
2023/11/09 17:50:58;;;;;;;5.85;5.32;;;;;;;;;;4933374;29;20371;-76
2023/11/09 17:53:24;;;;;;;5.68;5.28;;;;;;;;;;4924894;29;20448;-77
2023/11/09 17:55:50;;;;;;;10.13;5.22;;;;;;;;;;4928574;29;20032;-76
2023/11/09 17:58:16;;;;;;;5.78;4.93;;;;;;;;;;4925273;29;20055;-73
2023/11/09 18:00:42;;;;;;;5.93;5.28;;;;;;;;;;4929252;29;20028;-73
2023/11/09 18:03:13;;;;;;;5.25;4.82;;;;;;;;;;4915063;29;20118;-73
2023/11/09 18:05:39;;;;;;;6.93;4.88;;;;;;;;;;4915124;29;20507;-73
2023/11/09 18:08:06;;;;;;;4.88;4.47;;;;;;;;;;4915079;29;20050;-74
2023/11/09 18:10:32;;;;;;;3.80;3.60;;;;;;;;;;4914873;29;20134;-73
2023/11/09 18:13:00;;;;;;;5.15;4.53;;;;;;;;;;4914606;29;20047;-73
2023/11/09 18:15:26;;;;;;;6.63;3.95;;;;;;;;;;4922747;29;20032;-73
2023/11/09 18:17:52;;;;;;;5.07;4.60;;;;;;;;;;4930017;29;20130;-74
2023/11/09 18:20:18;;;;;;;4.32;4.03;;;;;;;;;;4929981;29;20623;-75
2023/11/09 18:22:43;;;;;;;4.60;4.20;;;;;;;;;;4929944;29;20043;-73
2023/11/09 18:25:10;;;;;;;6.00;4.32;;;;;;;;;;4933675;29;20039;-75
2023/11/09 18:27:36;;;;;;;4.97;4.50;;;;;;;;;;4934237;29;20051;-79
2023/11/09 18:30:04;;;;;;;4.75;4.18;;;;;;;;;;4950473;28;20045;-82
2023/11/09 18:32:29;;;;;;;4.57;4.22;;;;;;;;;;4921216;29;20466;-81
2023/11/09 18:34:56;;;;;;;4.60;4.20;;;;;;;;;;4945835;29;20071;-80
2023/11/09 18:37:22;;;;;;;5.57;4.43;;;;;;;;;;4941911;29;20099;-78
2023/11/09 18:39:48;;;;;;;7.68;4.32;;;;;;;;;;4934745;29;20139;-79
2023/11/09 18:42:15;;;;;;;4.57;4.25;;;;;;;;;;4944686;28;20036;-79
2023/11/09 18:44:42;;;;;;;8.55;3.88;;;;;;;;;;4933463;29;20036;-77
2023/11/09 18:47:08;;;;;;;5.07;4.30;;;;;;;;;;4933964;29;20039;-79
2023/11/09 18:49:34;;;;;;;4.72;4.43;;;;;;;;;;4932856;29;20325;-80
2023/11/09 18:52:01;;;;;;;4.35;4.07;;;;;;;;;;4936052;29;20039;-79
2023/11/09 18:54:27;;;;;;;4.25;3.63;;;;;;;;;;4925067;29;20423;-80
2023/11/09 18:56:53;;;;;;;4.50;4.20;;;;;;;;;;4931659;29;20035;-79
2023/11/09 18:59:20;;;;;;;4.22;3.88;;;;;;;;;;4920875;29;20529;-78
2023/11/09 19:01:49;;;;;;;4.70;4.45;;;;;;;;;;4936038;29;20102;-80
2023/11/09 19:04:17;;;;;;;5.88;3.95;;;;;;;;;;4964364;28;20090;-81
2023/11/09 19:06:44;;;;;;;6.88;5.10;;;;;;;;;;4936172;29;20044;-80
2023/11/09 19:09:11;;;;;;;5.18;4.40;;;;;;;;;;4948343;29;20042;-79
2023/11/09 19:11:39;;;;;;;4.03;3.83;;;;;;;;;;4946877;28;20043;-79
2023/11/09 19:14:08;;;;;;;4.00;3.72;;;;;;;;;;4932014;29;20040;-80
2023/11/09 19:16:34;;;;;;;4.35;4.05;;;;;;;;;;4936756;29;20663;-78
2023/11/09 19:19:00;;;;;;;8.43;5.05;;;;;;;;;;4938770;29;20130;-80
2023/11/09 19:21:28;;;;;;;4.75;4.45;;;;;;;;;;4945060;28;20032;-78
2023/11/09 19:23:54;;;;;;;6.28;4.90;;;;;;;;;;4939312;29;20054;-80
2023/11/09 19:26:20;;;;;;;5.50;5.10;;;;;;;;;;4954687;29;20051;-76
2023/11/09 19:28:46;;;;;;;4.50;4.15;;;;;;;;;;4931746;29;20418;-77
2023/11/09 19:31:12;;;;;;;5.43;4.90;;;;;;;;;;4934458;29;20058;-76
2023/11/09 19:33:38;;;;;;;9.30;5.10;;;;;;;;;;4932743;29;20043;-76
2023/11/09 19:36:08;;;;;;;4.93;4.53;;;;;;;;;;4931382;29;20138;-78
2023/11/09 19:38:34;;;;;;;8.43;4.60;;;;;;;;;;4927731;29;20031;-80
2023/11/09 19:41:00;;;;;;;5.13;4.70;;;;;;;;;;4940415;29;20036;-81
2023/11/09 19:43:26;;;;;;;4.72;4.32;;;;;;;;;;4924511;29;20087;-80
2023/11/09 19:45:52;;;;;;;6.07;4.28;;;;;;;;;;4914843;29;20060;-79
2023/11/09 19:48:19;;;;;;;6.10;5.50;;;;;;;;;;4915085;29;20032;-79
2023/11/09 19:50:46;;;;;;;4.68;4.38;;;;;;;;;;4925253;29;20043;-80
2023/11/09 19:53:12;;;;;;;4.60;4.30;;;;;;;;;;4942842;29;20039;-77
2023/11/09 19:55:38;;;;;;;4.45;4.10;;;;;;;;;;4933151;29;20032;-77
2023/11/09 19:58:05;;;;;;;6.38;4.03;;;;;;;;;;4947202;29;20031;-79
2023/11/09 20:00:31;;;;;;;4.40;4.00;;;;;;;;;;4943416;29;20036;-79
2023/11/09 20:02:57;;;;;;;4.43;4.13;;;;;;;;;;4944744;29;20503;-79
2023/11/09 20:05:23;;;;;;;6.95;4.30;;;;;;;;;;4917032;29;20136;-80
2023/11/09 20:07:49;;;;;;;6.22;4.82;;;;;;;;;;4933828;29;20073;-79
2023/11/09 20:10:16;;;;;;;4.60;4.30;;;;;;;;;;4933229;29;20039;-77
2023/11/09 20:12:42;;;;;;;6.88;4.72;;;;;;;;;;4932471;29;20672;-78
2023/11/09 20:15:09;;;;;;;5.15;4.70;;;;;;;;;;4932591;29;20119;-79
2023/11/09 20:17:35;;;;;;;8.30;5.38;;;;;;;;;;4930996;29;20039;-78
2023/11/09 20:20:04;;;;;;;4.75;4.35;;;;;;;;;;4932315;29;20090;-81
2023/11/09 20:22:33;;;;;;;4.78;4.43;;;;;;;;;;4930054;29;20031;-77
2023/11/09 20:24:59;;;;;;;3.83;3.60;;;;;;;;;;4924667;29;20031;-78
2023/11/09 20:27:26;;;;;;;4.07;3.78;;;;;;;;;;4923914;29;20107;-78